sensor_id;sensor_type;location;lat;lon;timestamp;P1;durP1;ratioP1;P2;durP2;ratioP2
23078;SDS011;11707;50.830;4.364;2022-10-17T00:01:06;9.40;;;5.72;;
23078;SDS011;11707;50.830;4.364;2022-10-17T00:03:33;8.63;;;6.18;;
23078;SDS011;11707;50.830;4.364;2022-10-17T00:06:03;7.20;;;5.63;;
23078;SDS011;11707;50.830;4.364;2022-10-17T00:08:34;9.85;;;5.82;;
23078;SDS011;11707;50.830;4.364;2022-10-17T00:11:02;7.95;;;5.57;;
23078;SDS011;11707;50.830;4.364;2022-10-17T00:13:30;9.13;;;5.60;;
23078;SDS011;11707;50.830;4.364;2022-10-17T00:15:56;7.65;;;5.40;;
23078;SDS011;11707;50.830;4.364;2022-10-17T00:18:22;11.77;;;4.80;;
23078;SDS011;11707;50.830;4.364;2022-10-17T00:20:48;6.72;;;4.70;;
23078;SDS011;11707;50.830;4.364;2022-10-17T00:23:14;7.30;;;5.03;;
23078;SDS011;11707;50.830;4.364;2022-10-17T00:25:40;13.38;;;5.63;;
23078;SDS011;11707;50.830;4.364;2022-10-17T00:28:09;9.40;;;5.25;;
23078;SDS011;11707;50.830;4.364;2022-10-17T00:30:36;7.13;;;5.68;;
23078;SDS011;11707;50.830;4.364;2022-10-17T00:33:02;9.93;;;5.57;;
23078;SDS011;11707;50.830;4.364;2022-10-17T00:35:27;9.15;;;5.68;;
23078;SDS011;11707;50.830;4.364;2022-10-17T00:37:53;6.55;;;5.13;;
23078;SDS011;11707;50.830;4.364;2022-10-17T00:40:19;10.20;;;5.95;;
23078;SDS011;11707;50.830;4.364;2022-10-17T00:42:45;8.20;;;5.07;;
23078;SDS011;11707;50.830;4.364;2022-10-17T00:45:24;16.13;;;6.22;;
23078;SDS011;11707;50.830;4.364;2022-10-17T00:47:55;10.45;;;6.00;;
23078;SDS011;11707;50.830;4.364;2022-10-17T00:50:25;9.80;;;5.88;;
23078;SDS011;11707;50.830;4.364;2022-10-17T00:52:52;12.35;;;5.70;;
23078;SDS011;11707;50.830;4.364;2022-10-17T00:55:21;11.00;;;5.88;;
23078;SDS011;11707;50.830;4.364;2022-10-17T00:57:53;12.20;;;5.95;;
23078;SDS011;11707;50.830;4.364;2022-10-17T01:00:20;9.65;;;5.93;;
23078;SDS011;11707;50.830;4.364;2022-10-17T01:02:46;8.55;;;5.78;;
23078;SDS011;11707;50.830;4.364;2022-10-17T01:05:13;11.88;;;6.13;;
23078;SDS011;11707;50.830;4.364;2022-10-17T01:07:40;11.50;;;5.75;;
23078;SDS011;11707;50.830;4.364;2022-10-17T01:10:07;8.82;;;5.82;;
23078;SDS011;11707;50.830;4.364;2022-10-17T01:12:51;10.73;;;6.10;;
23078;SDS011;11707;50.830;4.364;2022-10-17T01:15:43;9.48;;;6.38;;
23078;SDS011;11707;50.830;4.364;2022-10-17T01:24:12;8.75;;;5.80;;
23078;SDS011;11707;50.830;4.364;2022-10-17T01:31:59;10.65;;;5.30;;
23078;SDS011;11707;50.830;4.364;2022-10-17T01:37:36;11.15;;;6.82;;
23078;SDS011;11707;50.830;4.364;2022-10-17T01:42:34;9.85;;;5.63;;
23078;SDS011;11707;50.830;4.364;2022-10-17T01:45:10;10.27;;;5.90;;
23078;SDS011;11707;50.830;4.364;2022-10-17T01:47:42;7.15;;;5.60;;
23078;SDS011;11707;50.830;4.364;2022-10-17T01:50:24;10.52;;;6.03;;
23078;SDS011;11707;50.830;4.364;2022-10-17T01:53:06;10.68;;;5.65;;
23078;SDS011;11707;50.830;4.364;2022-10-17T01:55:40;9.80;;;5.93;;
23078;SDS011;11707;50.830;4.364;2022-10-17T01:58:11;18.23;;;5.95;;
23078;SDS011;11707;50.830;4.364;2022-10-17T02:00:43;11.07;;;5.38;;
23078;SDS011;11707;50.830;4.364;2022-10-17T02:03:12;8.50;;;5.40;;
23078;SDS011;11707;50.830;4.364;2022-10-17T02:05:41;11.13;;;5.15;;
23078;SDS011;11707;50.830;4.364;2022-10-17T02:08:08;7.35;;;4.50;;
23078;SDS011;11707;50.830;4.364;2022-10-17T02:10:47;6.68;;;4.75;;
23078;SDS011;11707;50.830;4.364;2022-10-17T02:22:33;11.18;;;5.13;;
23078;SDS011;11707;50.830;4.364;2022-10-17T02:27:41;9.32;;;4.85;;
23078;SDS011;11707;50.830;4.364;2022-10-17T02:33:09;8.48;;;4.82;;
23078;SDS011;11707;50.830;4.364;2022-10-17T02:35:40;9.55;;;4.72;;
23078;SDS011;11707;50.830;4.364;2022-10-17T02:38:10;12.23;;;5.68;;
23078;SDS011;11707;50.830;4.364;2022-10-17T02:40:37;8.18;;;4.90;;
23078;SDS011;11707;50.830;4.364;2022-10-17T02:43:04;10.30;;;5.13;;
23078;SDS011;11707;50.830;4.364;2022-10-17T02:45:31;10.00;;;5.30;;
23078;SDS011;11707;50.830;4.364;2022-10-17T02:53:44;9.35;;;4.28;;
23078;SDS011;11707;50.830;4.364;2022-10-17T02:56:19;12.27;;;5.18;;
23078;SDS011;11707;50.830;4.364;2022-10-17T02:58:46;9.18;;;5.50;;
23078;SDS011;11707;50.830;4.364;2022-10-17T03:01:17;7.25;;;5.25;;
23078;SDS011;11707;50.830;4.364;2022-10-17T03:03:43;10.95;;;5.43;;
23078;SDS011;11707;50.830;4.364;2022-10-17T03:06:09;8.48;;;5.05;;
23078;SDS011;11707;50.830;4.364;2022-10-17T03:08:34;10.80;;;5.32;;
23078;SDS011;11707;50.830;4.364;2022-10-17T03:11:00;11.25;;;5.53;;
23078;SDS011;11707;50.830;4.364;2022-10-17T03:13:26;11.43;;;5.45;;
23078;SDS011;11707;50.830;4.364;2022-10-17T03:15:54;12.27;;;5.38;;
23078;SDS011;11707;50.830;4.364;2022-10-17T03:18:20;11.48;;;5.30;;
23078;SDS011;11707;50.830;4.364;2022-10-17T03:20:46;9.90;;;5.30;;
23078;SDS011;11707;50.830;4.364;2022-10-17T03:23:12;10.57;;;5.22;;
23078;SDS011;11707;50.830;4.364;2022-10-17T03:25:38;9.38;;;4.80;;
23078;SDS011;11707;50.830;4.364;2022-10-17T03:28:03;8.15;;;5.00;;
23078;SDS011;11707;50.830;4.364;2022-10-17T03:30:29;12.13;;;5.55;;
23078;SDS011;11707;50.830;4.364;2022-10-17T03:32:58;12.30;;;5.00;;
23078;SDS011;11707;50.830;4.364;2022-10-17T03:35:25;11.70;;;5.32;;
23078;SDS011;11707;50.830;4.364;2022-10-17T03:37:51;16.00;;;5.72;;
23078;SDS011;11707;50.830;4.364;2022-10-17T03:40:17;11.93;;;5.60;;
23078;SDS011;11707;50.830;4.364;2022-10-17T03:42:42;11.65;;;5.50;;
23078;SDS011;11707;50.830;4.364;2022-10-17T03:45:08;9.88;;;5.03;;
23078;SDS011;11707;50.830;4.364;2022-10-17T03:47:34;8.57;;;5.60;;
23078;SDS011;11707;50.830;4.364;2022-10-17T03:50:00;14.07;;;5.85;;
23078;SDS011;11707;50.830;4.364;2022-10-17T03:52:25;13.98;;;5.80;;
23078;SDS011;11707;50.830;4.364;2022-10-17T03:54:51;8.63;;;5.72;;
23078;SDS011;11707;50.830;4.364;2022-10-17T03:57:17;15.73;;;5.90;;
23078;SDS011;11707;50.830;4.364;2022-10-17T03:59:43;10.90;;;4.80;;
23078;SDS011;11707;50.830;4.364;2022-10-17T04:02:09;9.20;;;5.85;;
23078;SDS011;11707;50.830;4.364;2022-10-17T04:04:35;11.82;;;5.65;;
23078;SDS011;11707;50.830;4.364;2022-10-17T04:07:00;7.97;;;5.22;;
23078;SDS011;11707;50.830;4.364;2022-10-17T04:09:27;8.38;;;5.07;;
23078;SDS011;11707;50.830;4.364;2022-10-17T04:11:53;6.80;;;4.97;;
23078;SDS011;11707;50.830;4.364;2022-10-17T04:14:18;12.75;;;5.53;;
23078;SDS011;11707;50.830;4.364;2022-10-17T04:16:44;10.02;;;5.32;;
23078;SDS011;11707;50.830;4.364;2022-10-17T04:19:10;12.35;;;5.68;;
23078;SDS011;11707;50.830;4.364;2022-10-17T04:21:37;10.30;;;4.50;;
23078;SDS011;11707;50.830;4.364;2022-10-17T04:24:03;9.80;;;4.97;;
23078;SDS011;11707;50.830;4.364;2022-10-17T04:26:29;7.93;;;4.90;;
23078;SDS011;11707;50.830;4.364;2022-10-17T04:28:54;12.63;;;5.05;;
23078;SDS011;11707;50.830;4.364;2022-10-17T04:31:20;6.47;;;4.60;;
23078;SDS011;11707;50.830;4.364;2022-10-17T04:33:47;9.65;;;5.05;;
23078;SDS011;11707;50.830;4.364;2022-10-17T04:36:14;5.63;;;5.03;;
23078;SDS011;11707;50.830;4.364;2022-10-17T04:38:41;8.05;;;4.97;;
23078;SDS011;11707;50.830;4.364;2022-10-17T04:41:10;7.13;;;4.38;;
23078;SDS011;11707;50.830;4.364;2022-10-17T04:43:39;13.82;;;5.47;;
23078;SDS011;11707;50.830;4.364;2022-10-17T04:46:06;9.40;;;4.65;;
23078;SDS011;11707;50.830;4.364;2022-10-17T04:48:34;8.85;;;4.97;;
23078;SDS011;11707;50.830;4.364;2022-10-17T04:51:05;10.52;;;5.15;;
23078;SDS011;11707;50.830;4.364;2022-10-17T04:53:41;9.55;;;4.25;;
23078;SDS011;11707;50.830;4.364;2022-10-17T04:56:09;15.43;;;7.75;;
23078;SDS011;11707;50.830;4.364;2022-10-17T04:58:40;10.73;;;4.85;;
23078;SDS011;11707;50.830;4.364;2022-10-17T05:01:07;7.10;;;4.50;;
23078;SDS011;11707;50.830;4.364;2022-10-17T05:03:34;8.05;;;4.65;;
23078;SDS011;11707;50.830;4.364;2022-10-17T05:06:04;6.85;;;4.45;;
23078;SDS011;11707;50.830;4.364;2022-10-17T05:08:32;9.45;;;4.80;;
23078;SDS011;11707;50.830;4.364;2022-10-17T05:10:57;9.20;;;4.20;;
23078;SDS011;11707;50.830;4.364;2022-10-17T05:13:23;6.80;;;4.25;;
23078;SDS011;11707;50.830;4.364;2022-10-17T05:15:49;5.00;;;3.47;;
23078;SDS011;11707;50.830;4.364;2022-10-17T05:18:14;8.02;;;4.20;;
23078;SDS011;11707;50.830;4.364;2022-10-17T05:20:40;9.63;;;4.25;;
23078;SDS011;11707;50.830;4.364;2022-10-17T05:23:06;11.70;;;4.43;;
23078;SDS011;11707;50.830;4.364;2022-10-17T05:25:31;9.80;;;3.97;;
23078;SDS011;11707;50.830;4.364;2022-10-17T05:27:57;5.72;;;4.30;;
23078;SDS011;11707;50.830;4.364;2022-10-17T05:30:23;12.32;;;4.32;;
23078;SDS011;11707;50.830;4.364;2022-10-17T05:32:52;14.27;;;4.57;;
23078;SDS011;11707;50.830;4.364;2022-10-17T05:35:19;12.40;;;4.63;;
23078;SDS011;11707;50.830;4.364;2022-10-17T05:37:45;9.88;;;4.75;;
23078;SDS011;11707;50.830;4.364;2022-10-17T05:40:11;10.73;;;3.90;;
23078;SDS011;11707;50.830;4.364;2022-10-17T05:42:37;9.23;;;4.55;;
23078;SDS011;11707;50.830;4.364;2022-10-17T05:45:03;8.55;;;4.47;;
23078;SDS011;11707;50.830;4.364;2022-10-17T05:47:29;9.68;;;4.22;;
23078;SDS011;11707;50.830;4.364;2022-10-17T05:49:55;7.90;;;4.20;;
23078;SDS011;11707;50.830;4.364;2022-10-17T05:52:20;6.88;;;3.78;;
23078;SDS011;11707;50.830;4.364;2022-10-17T05:54:46;8.50;;;4.20;;
23078;SDS011;11707;50.830;4.364;2022-10-17T05:57:12;8.45;;;4.53;;
23078;SDS011;11707;50.830;4.364;2022-10-17T05:59:37;15.50;;;4.32;;
23078;SDS011;11707;50.830;4.364;2022-10-17T06:02:03;8.00;;;3.88;;
23078;SDS011;11707;50.830;4.364;2022-10-17T06:04:28;8.00;;;3.90;;
23078;SDS011;11707;50.830;4.364;2022-10-17T06:06:54;11.38;;;4.30;;
23078;SDS011;11707;50.830;4.364;2022-10-17T06:09:20;7.10;;;4.05;;
23078;SDS011;11707;50.830;4.364;2022-10-17T06:11:47;7.63;;;3.92;;
23078;SDS011;11707;50.830;4.364;2022-10-17T06:14:12;9.40;;;4.43;;
23078;SDS011;11707;50.830;4.364;2022-10-17T06:16:38;12.55;;;4.22;;
23078;SDS011;11707;50.830;4.364;2022-10-17T06:19:04;7.25;;;4.18;;
23078;SDS011;11707;50.830;4.364;2022-10-17T06:21:29;9.48;;;4.85;;
23078;SDS011;11707;50.830;4.364;2022-10-17T06:23:58;16.25;;;4.43;;
23078;SDS011;11707;50.830;4.364;2022-10-17T06:26:24;7.07;;;4.05;;
23078;SDS011;11707;50.830;4.364;2022-10-17T06:28:55;10.05;;;4.50;;
23078;SDS011;11707;50.830;4.364;2022-10-17T06:31:20;11.85;;;4.63;;
23078;SDS011;11707;50.830;4.364;2022-10-17T06:33:46;11.38;;;4.03;;
23078;SDS011;11707;50.830;4.364;2022-10-17T06:36:12;11.02;;;4.40;;
23078;SDS011;11707;50.830;4.364;2022-10-17T06:38:38;8.43;;;4.63;;
23078;SDS011;11707;50.830;4.364;2022-10-17T06:41:06;14.43;;;5.03;;
23078;SDS011;11707;50.830;4.364;2022-10-17T06:43:38;12.90;;;4.47;;
23078;SDS011;11707;50.830;4.364;2022-10-17T06:46:07;8.13;;;4.38;;
23078;SDS011;11707;50.830;4.364;2022-10-17T06:48:33;12.80;;;4.47;;
23078;SDS011;11707;50.830;4.364;2022-10-17T06:51:02;8.60;;;4.18;;
23078;SDS011;11707;50.830;4.364;2022-10-17T06:53:29;6.20;;;4.03;;
23078;SDS011;11707;50.830;4.364;2022-10-17T06:55:57;15.18;;;5.20;;
23078;SDS011;11707;50.830;4.364;2022-10-17T06:58:30;7.60;;;4.10;;
23078;SDS011;11707;50.830;4.364;2022-10-17T07:01:07;6.75;;;4.20;;
23078;SDS011;11707;50.830;4.364;2022-10-17T07:03:34;5.60;;;3.28;;
23078;SDS011;11707;50.830;4.364;2022-10-17T07:06:00;9.82;;;3.72;;
23078;SDS011;11707;50.830;4.364;2022-10-17T07:08:26;7.38;;;3.80;;
23078;SDS011;11707;50.830;4.364;2022-10-17T07:10:51;8.85;;;4.10;;
23078;SDS011;11707;50.830;4.364;2022-10-17T07:13:18;10.27;;;4.28;;
23078;SDS011;11707;50.830;4.364;2022-10-17T07:15:44;11.43;;;4.60;;
23078;SDS011;11707;50.830;4.364;2022-10-17T07:18:09;18.02;;;4.38;;
23078;SDS011;11707;50.830;4.364;2022-10-17T07:20:35;9.00;;;4.32;;
23078;SDS011;11707;50.830;4.364;2022-10-17T07:23:01;10.85;;;4.18;;
23078;SDS011;11707;50.830;4.364;2022-10-17T07:25:27;7.90;;;4.20;;
23078;SDS011;11707;50.830;4.364;2022-10-17T07:27:54;10.82;;;4.55;;
23078;SDS011;11707;50.830;4.364;2022-10-17T07:30:20;8.52;;;5.28;;
23078;SDS011;11707;50.830;4.364;2022-10-17T07:32:46;8.65;;;4.25;;
23078;SDS011;11707;50.830;4.364;2022-10-17T07:35:12;12.05;;;6.05;;
23078;SDS011;11707;50.830;4.364;2022-10-17T07:37:38;10.98;;;5.32;;
23078;SDS011;11707;50.830;4.364;2022-10-17T07:40:05;11.88;;;5.60;;
23078;SDS011;11707;50.830;4.364;2022-10-17T07:42:35;8.68;;;5.35;;
23078;SDS011;11707;50.830;4.364;2022-10-17T07:45:01;14.35;;;6.18;;
23078;SDS011;11707;50.830;4.364;2022-10-17T07:47:27;10.65;;;5.80;;
23078;SDS011;11707;50.830;4.364;2022-10-17T07:49:55;12.45;;;6.80;;
23078;SDS011;11707;50.830;4.364;2022-10-17T07:52:21;10.63;;;6.60;;
23078;SDS011;11707;50.830;4.364;2022-10-17T07:54:47;14.07;;;7.20;;
23078;SDS011;11707;50.830;4.364;2022-10-17T07:57:12;14.02;;;6.90;;
23078;SDS011;11707;50.830;4.364;2022-10-17T07:59:38;11.18;;;6.57;;
23078;SDS011;11707;50.830;4.364;2022-10-17T08:02:04;11.30;;;7.03;;
23078;SDS011;11707;50.830;4.364;2022-10-17T08:04:32;11.20;;;6.57;;
23078;SDS011;11707;50.830;4.364;2022-10-17T08:06:58;9.77;;;6.63;;
23078;SDS011;11707;50.830;4.364;2022-10-17T08:09:25;9.23;;;6.72;;
23078;SDS011;11707;50.830;4.364;2022-10-17T08:11:50;12.38;;;7.13;;
23078;SDS011;11707;50.830;4.364;2022-10-17T08:14:16;11.20;;;7.00;;
23078;SDS011;11707;50.830;4.364;2022-10-17T08:16:42;12.52;;;6.75;;
23078;SDS011;11707;50.830;4.364;2022-10-17T08:19:08;10.30;;;7.13;;
23078;SDS011;11707;50.830;4.364;2022-10-17T08:21:35;23.48;;;8.52;;
23078;SDS011;11707;50.830;4.364;2022-10-17T08:24:02;11.07;;;7.45;;
23078;SDS011;11707;50.830;4.364;2022-10-17T08:26:28;10.43;;;7.38;;
23078;SDS011;11707;50.830;4.364;2022-10-17T08:28:55;12.02;;;7.90;;
23078;SDS011;11707;50.830;4.364;2022-10-17T08:31:21;9.90;;;7.25;;
23078;SDS011;11707;50.830;4.364;2022-10-17T08:33:47;12.57;;;7.47;;
23078;SDS011;11707;50.830;4.364;2022-10-17T08:36:15;9.85;;;8.43;;
23078;SDS011;11707;50.830;4.364;2022-10-17T08:38:42;15.65;;;10.25;;
23078;SDS011;11707;50.830;4.364;2022-10-17T08:46:46;17.95;;;7.85;;
23078;SDS011;11707;50.830;4.364;2022-10-17T08:49:23;12.75;;;8.13;;
23078;SDS011;11707;50.830;4.364;2022-10-17T08:52:02;14.40;;;8.45;;
23078;SDS011;11707;50.830;4.364;2022-10-17T08:57:12;12.25;;;7.50;;
23078;SDS011;11707;50.830;4.364;2022-10-17T08:59:39;14.13;;;6.68;;
23078;SDS011;11707;50.830;4.364;2022-10-17T09:08:01;20.25;;;6.35;;
23078;SDS011;11707;50.830;4.364;2022-10-17T09:13:45;10.07;;;6.38;;
23078;SDS011;11707;50.830;4.364;2022-10-17T09:16:49;12.70;;;6.57;;
23078;SDS011;11707;50.830;4.364;2022-10-17T09:19:35;11.15;;;7.57;;
23078;SDS011;11707;50.830;4.364;2022-10-17T09:22:27;11.70;;;6.70;;
23078;SDS011;11707;50.830;4.364;2022-10-17T09:24:53;12.13;;;6.43;;
23078;SDS011;11707;50.830;4.364;2022-10-17T09:30:38;12.15;;;7.00;;
23078;SDS011;11707;50.830;4.364;2022-10-17T09:33:12;14.80;;;8.13;;
23078;SDS011;11707;50.830;4.364;2022-10-17T09:35:45;11.10;;;6.82;;
23078;SDS011;11707;50.830;4.364;2022-10-17T09:38:14;12.50;;;6.55;;
23078;SDS011;11707;50.830;4.364;2022-10-17T09:40:42;14.85;;;6.88;;
23078;SDS011;11707;50.830;4.364;2022-10-17T09:43:10;20.40;;;7.32;;
23078;SDS011;11707;50.830;4.364;2022-10-17T09:45:40;15.80;;;7.45;;
23078;SDS011;11707;50.830;4.364;2022-10-17T09:51:07;10.98;;;7.15;;
23078;SDS011;11707;50.830;4.364;2022-10-17T09:53:38;11.05;;;6.57;;
23078;SDS011;11707;50.830;4.364;2022-10-17T09:56:08;11.73;;;6.43;;
23078;SDS011;11707;50.830;4.364;2022-10-17T09:58:44;12.98;;;5.80;;
23078;SDS011;11707;50.830;4.364;2022-10-17T10:01:16;12.95;;;6.82;;
23078;SDS011;11707;50.830;4.364;2022-10-17T10:03:42;11.00;;;6.25;;
23078;SDS011;11707;50.830;4.364;2022-10-17T10:06:26;15.63;;;7.10;;
23078;SDS011;11707;50.830;4.364;2022-10-17T10:11:22;15.82;;;8.23;;
23078;SDS011;11707;50.830;4.364;2022-10-17T10:14:11;15.68;;;8.23;;
23078;SDS011;11707;50.830;4.364;2022-10-17T10:16:48;16.77;;;8.55;;
23078;SDS011;11707;50.830;4.364;2022-10-17T10:19:19;9.82;;;7.15;;
23078;SDS011;11707;50.830;4.364;2022-10-17T10:21:55;9.23;;;6.57;;
23078;SDS011;11707;50.830;4.364;2022-10-17T10:24:23;20.08;;;7.95;;
23078;SDS011;11707;50.830;4.364;2022-10-17T10:26:50;15.05;;;6.68;;
23078;SDS011;11707;50.830;4.364;2022-10-17T10:31:47;12.65;;;7.63;;
23078;SDS011;11707;50.830;4.364;2022-10-17T10:34:15;14.30;;;7.00;;
23078;SDS011;11707;50.830;4.364;2022-10-17T10:39:21;12.30;;;7.38;;
23078;SDS011;11707;50.830;4.364;2022-10-17T10:41:56;15.82;;;7.90;;
23078;SDS011;11707;50.830;4.364;2022-10-17T10:44:23;10.95;;;7.40;;
23078;SDS011;11707;50.830;4.364;2022-10-17T10:47:36;10.23;;;6.78;;
23078;SDS011;11707;50.830;4.364;2022-10-17T10:49:45;9.43;;;6.78;;
23078;SDS011;11707;50.830;4.364;2022-10-17T10:52:27;13.60;;;6.88;;
23078;SDS011;11707;50.830;4.364;2022-10-17T10:54:59;10.90;;;6.88;;
23078;SDS011;11707;50.830;4.364;2022-10-17T10:57:48;9.35;;;6.55;;
23078;SDS011;11707;50.830;4.364;2022-10-17T11:00:18;15.90;;;7.03;;
23078;SDS011;11707;50.830;4.364;2022-10-17T11:02:51;12.18;;;7.07;;
23078;SDS011;11707;50.830;4.364;2022-10-17T11:05:50;15.05;;;7.63;;
23078;SDS011;11707;50.830;4.364;2022-10-17T11:08:23;15.00;;;6.93;;
23078;SDS011;11707;50.830;4.364;2022-10-17T11:11:12;14.95;;;6.80;;
23078;SDS011;11707;50.830;4.364;2022-10-17T11:13:43;9.32;;;5.78;;
23078;SDS011;11707;50.830;4.364;2022-10-17T11:18:51;11.80;;;6.75;;
23078;SDS011;11707;50.830;4.364;2022-10-17T11:24:16;11.68;;;6.47;;
23078;SDS011;11707;50.830;4.364;2022-10-17T11:26:48;11.60;;;6.90;;
23078;SDS011;11707;50.830;4.364;2022-10-17T11:29:25;15.98;;;6.35;;
23078;SDS011;11707;50.830;4.364;2022-10-17T11:35:04;11.65;;;6.50;;
23078;SDS011;11707;50.830;4.364;2022-10-17T11:37:39;26.88;;;16.55;;
23078;SDS011;11707;50.830;4.364;2022-10-17T11:40:14;19.27;;;11.98;;
23078;SDS011;11707;50.830;4.364;2022-10-17T11:43:02;14.52;;;6.57;;
23078;SDS011;11707;50.830;4.364;2022-10-17T11:45:35;17.70;;;7.03;;
23078;SDS011;11707;50.830;4.364;2022-10-17T11:48:11;12.75;;;6.85;;
23078;SDS011;11707;50.830;4.364;2022-10-17T11:51:10;16.37;;;6.13;;
23078;SDS011;11707;50.830;4.364;2022-10-17T11:53:53;16.60;;;7.60;;
23078;SDS011;11707;50.830;4.364;2022-10-17T11:56:39;14.05;;;6.40;;
23078;SDS011;11707;50.830;4.364;2022-10-17T12:02:29;12.05;;;6.80;;
23078;SDS011;11707;50.830;4.364;2022-10-17T12:08:08;14.52;;;7.25;;
23078;SDS011;11707;50.830;4.364;2022-10-17T12:21:13;18.20;;;7.10;;
23078;SDS011;11707;50.830;4.364;2022-10-17T12:23:39;15.77;;;7.30;;
23078;SDS011;11707;50.830;4.364;2022-10-17T12:26:08;17.52;;;6.65;;
23078;SDS011;11707;50.830;4.364;2022-10-17T12:28:44;18.67;;;7.30;;
23078;SDS011;11707;50.830;4.364;2022-10-17T12:38:45;16.15;;;7.25;;
23078;SDS011;11707;50.830;4.364;2022-10-17T12:41:15;14.45;;;7.07;;
23078;SDS011;11707;50.830;4.364;2022-10-17T12:52:19;16.65;;;8.35;;
23078;SDS011;11707;50.830;4.364;2022-10-17T12:58:00;13.95;;;7.95;;
23078;SDS011;11707;50.830;4.364;2022-10-17T13:05:39;18.30;;;10.38;;
23078;SDS011;11707;50.830;4.364;2022-10-17T13:08:12;12.68;;;8.65;;
23078;SDS011;11707;50.830;4.364;2022-10-17T13:10:43;12.40;;;8.05;;
23078;SDS011;11707;50.830;4.364;2022-10-17T13:16:03;11.00;;;7.80;;
23078;SDS011;11707;50.830;4.364;2022-10-17T13:18:29;11.55;;;7.00;;
23078;SDS011;11707;50.830;4.364;2022-10-17T13:21:00;12.98;;;7.03;;
23078;SDS011;11707;50.830;4.364;2022-10-17T13:23:30;14.73;;;7.20;;
23078;SDS011;11707;50.830;4.364;2022-10-17T13:26:21;11.13;;;7.07;;
23078;SDS011;11707;50.830;4.364;2022-10-17T13:29:02;11.05;;;6.45;;
23078;SDS011;11707;50.830;4.364;2022-10-17T13:33:56;16.42;;;6.28;;
23078;SDS011;11707;50.830;4.364;2022-10-17T13:36:25;8.02;;;6.13;;
23078;SDS011;11707;50.830;4.364;2022-10-17T13:38:52;11.32;;;5.72;;
23078;SDS011;11707;50.830;4.364;2022-10-17T13:41:20;12.38;;;4.88;;
23078;SDS011;11707;50.830;4.364;2022-10-17T13:43:50;14.90;;;5.18;;
23078;SDS011;11707;50.830;4.364;2022-10-17T13:46:24;10.40;;;4.30;;
23078;SDS011;11707;50.830;4.364;2022-10-17T13:48:53;8.82;;;4.75;;
23078;SDS011;11707;50.830;4.364;2022-10-17T13:51:19;8.90;;;4.72;;
23078;SDS011;11707;50.830;4.364;2022-10-17T13:53:46;6.90;;;4.57;;
23078;SDS011;11707;50.830;4.364;2022-10-17T14:01:09;6.10;;;4.05;;
23078;SDS011;11707;50.830;4.364;2022-10-17T14:03:37;17.90;;;3.30;;
23078;SDS011;11707;50.830;4.364;2022-10-17T14:06:06;7.57;;;3.85;;
23078;SDS011;11707;50.830;4.364;2022-10-17T14:08:38;5.47;;;3.50;;
23078;SDS011;11707;50.830;4.364;2022-10-17T14:11:44;5.30;;;3.25;;
23078;SDS011;11707;50.830;4.364;2022-10-17T14:14:05;6.53;;;3.85;;
23078;SDS011;11707;50.830;4.364;2022-10-17T14:16:44;6.13;;;3.17;;
23078;SDS011;11707;50.830;4.364;2022-10-17T14:24:50;10.55;;;3.35;;
23078;SDS011;11707;50.830;4.364;2022-10-17T14:29:56;8.10;;;3.53;;
23078;SDS011;11707;50.830;4.364;2022-10-17T14:32:31;7.10;;;3.00;;
23078;SDS011;11707;50.830;4.364;2022-10-17T14:34:59;9.73;;;2.55;;
23078;SDS011;11707;50.830;4.364;2022-10-17T14:39:58;7.63;;;3.10;;
23078;SDS011;11707;50.830;4.364;2022-10-17T14:42:24;3.47;;;2.65;;
23078;SDS011;11707;50.830;4.364;2022-10-17T14:44:52;4.20;;;2.60;;
23078;SDS011;11707;50.830;4.364;2022-10-17T14:47:22;6.88;;;2.72;;
23078;SDS011;11707;50.830;4.364;2022-10-17T14:49:57;4.22;;;2.35;;
23078;SDS011;11707;50.830;4.364;2022-10-17T14:52:31;7.22;;;3.03;;
23078;SDS011;11707;50.830;4.364;2022-10-17T14:54:58;9.50;;;3.22;;
23078;SDS011;11707;50.830;4.364;2022-10-17T14:57:43;5.97;;;2.28;;
23078;SDS011;11707;50.830;4.364;2022-10-17T15:00:13;4.85;;;2.65;;
23078;SDS011;11707;50.830;4.364;2022-10-17T15:02:43;7.97;;;2.88;;
23078;SDS011;11707;50.830;4.364;2022-10-17T15:05:10;8.02;;;3.92;;
23078;SDS011;11707;50.830;4.364;2022-10-17T15:07:36;6.10;;;3.40;;
23078;SDS011;11707;50.830;4.364;2022-10-17T15:10:02;9.18;;;3.63;;
23078;SDS011;11707;50.830;4.364;2022-10-17T15:12:28;6.70;;;3.58;;
23078;SDS011;11707;50.830;4.364;2022-10-17T15:14:55;5.03;;;2.85;;
23078;SDS011;11707;50.830;4.364;2022-10-17T15:17:25;6.82;;;3.25;;
23078;SDS011;11707;50.830;4.364;2022-10-17T15:19:54;11.70;;;4.07;;
23078;SDS011;11707;50.830;4.364;2022-10-17T15:22:20;7.00;;;2.83;;
23078;SDS011;11707;50.830;4.364;2022-10-17T15:24:46;8.75;;;3.53;;
23078;SDS011;11707;50.830;4.364;2022-10-17T15:27:13;5.75;;;2.95;;
23078;SDS011;11707;50.830;4.364;2022-10-17T15:29:47;11.80;;;4.55;;
23078;SDS011;11707;50.830;4.364;2022-10-17T15:32:14;9.63;;;7.40;;
23078;SDS011;11707;50.830;4.364;2022-10-17T15:34:40;5.18;;;3.17;;
23078;SDS011;11707;50.830;4.364;2022-10-17T15:37:06;6.63;;;3.03;;
23078;SDS011;11707;50.830;4.364;2022-10-17T15:39:55;5.28;;;3.35;;
23078;SDS011;11707;50.830;4.364;2022-10-17T15:42:21;9.00;;;3.17;;
23078;SDS011;11707;50.830;4.364;2022-10-17T15:44:51;5.75;;;3.05;;
23078;SDS011;11707;50.830;4.364;2022-10-17T15:47:18;7.95;;;3.05;;
23078;SDS011;11707;50.830;4.364;2022-10-17T15:49:48;5.57;;;3.40;;
23078;SDS011;11707;50.830;4.364;2022-10-17T15:52:14;9.35;;;3.72;;
23078;SDS011;11707;50.830;4.364;2022-10-17T15:54:40;5.80;;;4.07;;
23078;SDS011;11707;50.830;4.364;2022-10-17T15:57:07;22.83;;;17.73;;
23078;SDS011;11707;50.830;4.364;2022-10-17T15:59:44;5.85;;;3.40;;
23078;SDS011;11707;50.830;4.364;2022-10-17T16:02:12;8.63;;;3.78;;
23078;SDS011;11707;50.830;4.364;2022-10-17T16:04:39;5.28;;;3.33;;
23078;SDS011;11707;50.830;4.364;2022-10-17T16:07:05;6.38;;;3.75;;
23078;SDS011;11707;50.830;4.364;2022-10-17T16:09:32;5.03;;;3.17;;
23078;SDS011;11707;50.830;4.364;2022-10-17T16:11:59;9.63;;;3.03;;
23078;SDS011;11707;50.830;4.364;2022-10-17T16:14:25;6.18;;;3.25;;
23078;SDS011;11707;50.830;4.364;2022-10-17T16:16:51;6.78;;;3.45;;
23078;SDS011;11707;50.830;4.364;2022-10-17T16:19:17;8.63;;;4.05;;
23078;SDS011;11707;50.830;4.364;2022-10-17T16:21:43;10.25;;;3.83;;
23078;SDS011;11707;50.830;4.364;2022-10-17T16:24:09;4.95;;;3.25;;
23078;SDS011;11707;50.830;4.364;2022-10-17T16:26:36;16.00;;;3.78;;
23078;SDS011;11707;50.830;4.364;2022-10-17T16:29:05;8.23;;;3.80;;
23078;SDS011;11707;50.830;4.364;2022-10-17T16:31:32;6.35;;;3.15;;
23078;SDS011;11707;50.830;4.364;2022-10-17T16:33:59;5.82;;;3.25;;
23078;SDS011;11707;50.830;4.364;2022-10-17T16:36:26;5.57;;;3.75;;
23078;SDS011;11707;50.830;4.364;2022-10-17T16:38:52;10.77;;;5.03;;
23078;SDS011;11707;50.830;4.364;2022-10-17T16:43:59;6.22;;;4.18;;
23078;SDS011;11707;50.830;4.364;2022-10-17T16:46:27;10.40;;;4.72;;
23078;SDS011;11707;50.830;4.364;2022-10-17T16:48:53;8.60;;;4.47;;
23078;SDS011;11707;50.830;4.364;2022-10-17T16:51:19;6.05;;;4.22;;
23078;SDS011;11707;50.830;4.364;2022-10-17T16:53:46;12.95;;;3.70;;
23078;SDS011;11707;50.830;4.364;2022-10-17T16:56:15;6.55;;;4.10;;
23078;SDS011;11707;50.830;4.364;2022-10-17T16:58:42;7.22;;;4.45;;
23078;SDS011;11707;50.830;4.364;2022-10-17T17:01:09;9.60;;;3.92;;
23078;SDS011;11707;50.830;4.364;2022-10-17T17:03:37;7.30;;;4.60;;
23078;SDS011;11707;50.830;4.364;2022-10-17T17:06:05;9.80;;;6.07;;
23078;SDS011;11707;50.830;4.364;2022-10-17T17:08:32;6.65;;;4.63;;
23078;SDS011;11707;50.830;4.364;2022-10-17T17:11:01;7.60;;;4.85;;
23078;SDS011;11707;50.830;4.364;2022-10-17T17:13:29;10.02;;;5.07;;
23078;SDS011;11707;50.830;4.364;2022-10-17T17:16:02;7.10;;;5.57;;